Hamoir, Belgium
Current Conditions -  °F | °C
As of 5:20 AM on Monday 26 Jan 2015 (Local Time) from EBLG Reporting Station
Haze Haze  
Wind Chill: 28°   Ceiling: 300
Heat Index: 36°   Visibility: 1mi
Dew Point: 34°   Wind: 10mph
Humidity: 93%   Direction: 190°S
Pressure: 30.21"   Gusts: NA
Location:  50.43°N, 5.53°E
Report Text: EBLG 260420Z 19009KT 1600 BR FEW002 BKN003 02/01 Q1023 TEMPO 1200 BR BKN002
Loading
Personal Weather Stations






























Interactive Weather Map New forecast layout! Learn more

10-Day Weather Forecast

Advertisements
Track Severe Weather on mobile